Spangler, PA

07:59 PM EDT del 21 Ottobre 2014 (GMT -0400)
Indiana County-Stewart | Change Station
CLOSE
Current Station
Aeroporto
Location: Indiana,
Altitudine: 1407 ft
Stazioni meteo nelle vicinanze

Alt. 1407 ft 40.63 °N, 79.11 °W | Updated 4 minutes ago

Coperto
Coperto
48 °F
Sembra 48 °F
N
4
Vento Variabile Vento da NO

Oggi
Massima -- | Minima -- °F
--% Possibilità di precip.
Ieri
Massima -- | Minima -- °F
Precip. -- in
7:32 AM 6:26 PM
Luna calante, 4% visible
Pressione 29.99 in
Visibilità 3.0 miglia
Nuvole Coperto 1200 ft
Punto di rugiada 46 °F
Umidità 93%
Piovosità 0.00 in
Spessore del manto nevoso Non disponibile.
Raggi UV 0 fuori da 12
Polline .30 fuori da 12
Qualità dell'aria Non disponibile.
Flu Activity Sporadic
METAR KIDI 212355Z AUTO 32003KT 3SM BR OVC012 09/08 A2999 RMK A01

More Conditions Fewer Conditions

Pressione 29.99 in
Visibilità 3.0 miglia
Nuvole Coperto 1200 ft
Punto di rugiada 46 °F
Umidità 93%
Piovosità 0.00 in
Spessore del manto nevoso Non disponibile.
Raggi UV 0 fuori da 12
Polline .30 fuori da 12
Qualità dell'aria Non disponibile.
Flu Activity Sporadic
METAR KIDI 212355Z AUTO 32003KT 3SM BR OVC012 09/08 A2999 RMK A01

More Conditions Fewer Conditions

10-Day Weather Forecast

Almanac

Astronomia

Oct. 21, 2014 Alba Tramonto
Ora attuale 07:32 EDT 18:26 EDT
Crepuscolo civile 07:04 EDT 18:53 EDT
Crepuscolo nautico 06:33 EDT 19:25 EDT
Crepuscolo astronomico 06:01 EDT 19:57 EDT
Luna 05:14 EDT 17:19 EDT
Estensione della luce visibile 11h 48m
Lunghezza del giorno
10h 53m
Tomorrow will be 2m 32s shorter.
Luna calante, 4% of the Moon is Illuminated
Oggi
Luna calante
Ott 23
Nuovo
Ott 30
Primo quarto
Nov 6
Luna piena
Nov 14
Ultimo quarto

Gli estremi di oggi

State Highs State Lows

Community

WunderPhotos

Upload Photos

1,763,821 foto caricate!

Nearby

Profondità neve

Stazione Profondità Altitudine
Non sono state evidenziate nuove nevicate

Attività sismica

Città  Distanza Mag. Data & Ora
Non sono state riportate attività sismiche nelle vicinanze.
Minimo Magnitudo Mostrato è 2.5.

Temperature delle acque costiere

Località Temperatura
Nessun dato dalle stazioni

Stazioni meteo nelle vicinanze